createdAt,value
2022-12-25T00:01:46.391Z,55.20
2022-12-25T00:04:13.699Z,56.65
2022-12-25T00:06:41.001Z,58.38
2022-12-25T00:09:08.227Z,58.40
2022-12-25T00:11:35.733Z,56.88
2022-12-25T00:14:03.025Z,56.45
2022-12-25T00:16:30.268Z,58.58
2022-12-25T00:18:59.036Z,58.33
2022-12-25T00:21:26.803Z,55.33
2022-12-25T00:23:59.009Z,56.38
2022-12-25T00:26:27.702Z,56.78
2022-12-25T00:28:57.387Z,57.10
2022-12-25T00:31:26.985Z,57.20
2022-12-25T00:33:54.718Z,55.10
2022-12-25T00:36:23.679Z,57.38
2022-12-25T00:38:51.039Z,57.40
2022-12-25T00:41:42.610Z,56.35
2022-12-25T00:44:13.732Z,54.97
2022-12-25T00:46:42.495Z,57.40
2022-12-25T00:49:11.696Z,60.08
2022-12-25T00:51:39.580Z,55.58
2022-12-25T00:54:07.417Z,58.13
2022-12-25T00:56:35.660Z,62.38
2022-12-25T00:59:03.300Z,56.88
2022-12-25T01:01:30.913Z,57.85
2022-12-25T01:03:58.802Z,58.00
2022-12-25T01:06:26.615Z,58.30
2022-12-25T01:09:12.809Z,58.65
2022-12-25T01:14:08.344Z,56.42
2022-12-25T01:16:36.081Z,57.08
2022-12-25T01:19:04.682Z,57.65
2022-12-25T01:21:32.888Z,56.28
2022-12-25T01:24:00.080Z,57.50
2022-12-25T01:26:28.264Z,58.75
2022-12-25T01:29:01.594Z,58.75
2022-12-25T01:31:29.045Z,56.75
2022-12-25T01:33:56.429Z,58.97
2022-12-25T01:36:26.338Z,59.55
2022-12-25T01:38:56.713Z,57.20
2022-12-25T01:41:25.475Z,59.97
2022-12-25T01:44:15.836Z,63.25
2022-12-25T01:46:44.192Z,60.15
2022-12-25T01:49:19.024Z,58.65
2022-12-25T01:52:24.335Z,59.75
2022-12-25T01:55:04.441Z,57.35
2022-12-25T01:57:36.923Z,55.65
2022-12-25T02:00:12.322Z,58.90
2022-12-25T02:02:43.324Z,61.45
2022-12-25T02:05:25.186Z,57.65
2022-12-25T02:07:56.940Z,55.10
2022-12-25T02:10:25.501Z,56.28
2022-12-25T02:12:53.295Z,53.90
2022-12-25T02:15:28.156Z,55.03
2022-12-25T02:18:46.415Z,56.67
2022-12-25T02:22:27.193Z,51.85
2022-12-25T02:25:53.888Z,52.60
2022-12-25T02:28:40.188Z,52.05
2022-12-25T02:31:38.312Z,49.53
2022-12-25T02:34:38.537Z,52.33
2022-12-25T02:37:39.205Z,51.03
2022-12-25T02:40:31.398Z,49.08
2022-12-25T02:43:24.282Z,49.35
2022-12-25T02:46:23.522Z,50.30
2022-12-25T02:49:20.377Z,50.67
2022-12-25T02:52:25.308Z,50.05
2022-12-25T02:55:20.501Z,49.50
2022-12-25T02:58:13.746Z,50.35
2022-12-25T03:01:10.964Z,48.22
2022-12-25T03:04:02.143Z,47.00
2022-12-25T03:06:42.984Z,50.13
2022-12-25T03:09:43.618Z,50.58
2022-12-25T03:12:39.764Z,47.65
2022-12-25T03:15:30.859Z,51.08
2022-12-25T03:18:08.453Z,48.97
2022-12-25T03:20:59.383Z,47.95
2022-12-25T03:23:56.210Z,49.95
2022-12-25T03:26:48.460Z,49.33
2022-12-25T03:29:35.750Z,50.92
2022-12-25T03:32:37.142Z,49.08
2022-12-25T03:35:27.741Z,47.00
2022-12-25T03:39:23.238Z,48.70
2022-12-25T03:42:17.463Z,49.90
2022-12-25T03:45:24.160Z,47.17
2022-12-25T03:47:53.755Z,47.88
2022-12-25T03:50:56.243Z,49.42
2022-12-25T03:54:16.756Z,48.92
2022-12-25T03:57:05.755Z,47.85
2022-12-25T03:59:51.919Z,46.70
2022-12-25T04:02:38.221Z,48.63
2022-12-25T04:05:27.403Z,43.75
2022-12-25T04:08:13.490Z,45.20
2022-12-25T04:10:59.535Z,45.20
2022-12-25T04:13:50.577Z,43.92
2022-12-25T04:16:36.648Z,44.55
2022-12-25T04:19:22.702Z,44.83
2022-12-25T04:22:08.697Z,42.55
2022-12-25T04:24:54.584Z,45.28
2022-12-25T04:27:40.641Z,43.75
2022-12-25T04:33:18.479Z,40.90
2022-12-25T04:36:07.684Z,41.33
2022-12-25T04:38:35.617Z,44.50
2022-12-25T04:41:04.034Z,43.30
2022-12-25T04:43:33.719Z,44.45
2022-12-25T04:46:05.017Z,43.10
2022-12-25T04:48:36.752Z,43.38
2022-12-25T04:51:30.403Z,41.97
2022-12-25T04:53:59.307Z,45.45
2022-12-25T04:56:26.566Z,39.70
2022-12-25T04:58:53.765Z,40.40
2022-12-25T05:01:22.323Z,42.20
2022-12-25T05:03:49.670Z,44.05
2022-12-25T05:06:17.334Z,45.88
2022-12-25T05:08:44.852Z,42.60
2022-12-25T05:11:16.098Z,46.17
2022-12-25T05:13:43.539Z,45.15
2022-12-25T05:16:20.982Z,43.40
2022-12-25T05:18:52.655Z,44.38
2022-12-25T05:21:20.634Z,42.78
2022-12-25T05:23:53.131Z,45.83
2022-12-25T05:26:25.310Z,42.72
2022-12-25T05:28:55.934Z,43.25
2022-12-25T05:31:26.128Z,40.47
2022-12-25T05:33:53.542Z,41.92
2022-12-25T05:36:23.783Z,39.47
2022-12-25T05:38:51.185Z,41.03
2022-12-25T05:41:18.564Z,42.28
2022-12-25T05:43:46.095Z,44.08
2022-12-25T05:46:15.496Z,40.38
2022-12-25T05:48:45.541Z,44.95
2022-12-25T05:51:15.216Z,44.83
2022-12-25T05:53:43.643Z,39.70
2022-12-25T05:56:11.301Z,41.28
2022-12-25T05:58:40.883Z,41.10
2022-12-25T06:01:23.135Z,43.15
2022-12-25T06:03:50.550Z,44.25
2022-12-25T06:06:18.444Z,42.63
2022-12-25T06:08:45.869Z,42.22
2022-12-25T06:11:15.118Z,41.28
2022-12-25T06:13:42.969Z,42.65
2022-12-25T06:16:12.698Z,42.58
2022-12-25T06:18:48.716Z,42.83
2022-12-25T06:21:18.264Z,44.35
2022-12-25T06:23:45.901Z,41.60
2022-12-25T06:26:18.777Z,43.20
2022-12-25T06:28:46.851Z,42.35
2022-12-25T06:31:24.828Z,43.30
2022-12-25T06:33:55.467Z,41.58
2022-12-25T06:36:26.795Z,40.78
2022-12-25T06:38:54.419Z,40.50
2022-12-25T06:41:26.098Z,44.00
2022-12-25T06:43:58.235Z,42.17
2022-12-25T06:46:29.953Z,42.47
2022-12-25T06:48:59.720Z,41.17
2022-12-25T06:51:31.591Z,39.80
2022-12-25T06:54:03.979Z,40.50
2022-12-25T06:56:36.089Z,40.15
2022-12-25T06:59:10.231Z,41.35
2022-12-25T07:01:50.837Z,38.55
2022-12-25T07:04:44.707Z,38.80
2022-12-25T07:07:12.337Z,39.97
2022-12-25T07:09:42.235Z,38.97
2022-12-25T07:12:24.377Z,39.28
2022-12-25T07:14:56.422Z,39.28
2022-12-25T07:17:24.571Z,43.33
2022-12-25T07:19:52.176Z,41.88
2022-12-25T07:22:19.808Z,39.95
2022-12-25T07:24:47.258Z,41.08
2022-12-25T07:27:14.655Z,39.08
2022-12-25T07:29:49.544Z,38.70
2022-12-25T07:32:16.756Z,38.13
2022-12-25T07:34:44.144Z,41.20
2022-12-25T07:37:11.694Z,39.40
2022-12-25T07:39:39.159Z,40.55
2022-12-25T07:42:07.394Z,38.17
2022-12-25T07:44:34.675Z,39.42
2022-12-25T07:47:02.058Z,38.70
2022-12-25T07:49:29.491Z,38.13
2022-12-25T07:54:31.553Z,38.40
2022-12-25T07:56:58.751Z,43.05
2022-12-25T07:59:26.427Z,38.90
2022-12-25T08:01:54.077Z,38.38
2022-12-25T08:04:24.931Z,41.50
2022-12-25T08:06:52.575Z,39.13
2022-12-25T08:09:54.153Z,38.17
2022-12-25T08:12:12.694Z,39.72
2022-12-25T08:14:41.173Z,39.72
2022-12-25T08:17:09.828Z,39.90
2022-12-25T08:19:40.258Z,39.38
2022-12-25T08:22:08.146Z,42.28
2022-12-25T08:24:35.954Z,41.45
2022-12-25T08:27:04.563Z,39.53
2022-12-25T08:29:33.554Z,38.85
2022-12-25T08:32:05.969Z,40.17
2022-12-25T08:34:39.992Z,37.35
2022-12-25T08:37:07.787Z,37.35
2022-12-25T08:39:41.148Z,36.17
2022-12-25T08:42:08.735Z,35.90
2022-12-25T08:44:40.975Z,33.38
2022-12-25T08:47:10.921Z,32.33
2022-12-25T08:49:39.147Z,34.85
2022-12-25T08:52:12.084Z,30.60
2022-12-25T08:54:46.787Z,30.60
2022-12-25T08:57:21.561Z,31.13
2022-12-25T08:59:49.318Z,29.60
2022-12-25T09:02:21.786Z,29.70
2022-12-25T09:04:53.039Z,31.30
2022-12-25T09:07:20.661Z,31.55
2022-12-25T09:09:56.899Z,28.88
2022-12-25T09:12:24.711Z,31.92
2022-12-25T09:14:54.765Z,31.60
2022-12-25T09:17:25.379Z,31.05
2022-12-25T09:19:55.449Z,31.38
2022-12-25T09:22:27.507Z,32.50
2022-12-25T09:25:01.301Z,34.20
2022-12-25T09:27:33.529Z,34.20
2022-12-25T09:30:05.833Z,36.92
2022-12-25T09:32:33.664Z,33.95
2022-12-25T09:35:01.195Z,36.65
2022-12-25T09:37:29.452Z,34.03
2022-12-25T09:39:57.626Z,35.78
2022-12-25T09:42:31.479Z,33.35
2022-12-25T09:45:12.407Z,34.90
2022-12-25T09:47:56.545Z,37.38
2022-12-25T09:51:00.422Z,37.20
2022-12-25T09:53:41.995Z,35.40
2022-12-25T09:56:30.300Z,37.97
2022-12-25T09:59:00.098Z,43.03
2022-12-25T10:01:44.836Z,41.25
2022-12-25T10:04:41.361Z,40.85
2022-12-25T10:08:09.209Z,40.17
2022-12-25T10:11:02.199Z,41.22
2022-12-25T10:14:08.451Z,41.08
2022-12-25T10:17:02.366Z,42.38
2022-12-25T10:19:57.001Z,43.42
2022-12-25T10:22:57.594Z,42.03
2022-12-25T10:25:38.315Z,43.60
2022-12-25T10:28:47.818Z,44.80
2022-12-25T10:33:53.777Z,43.30
2022-12-25T10:36:27.256Z,44.58
2022-12-25T10:38:55.904Z,47.35
2022-12-25T10:42:19.706Z,41.38
2022-12-25T10:45:09.351Z,41.67
2022-12-25T10:47:42.556Z,43.70
2022-12-25T10:50:17.317Z,42.58
2022-12-25T10:53:05.678Z,43.13
2022-12-25T10:55:33.502Z,43.00
2022-12-25T10:58:02.254Z,45.60
2022-12-25T11:00:32.646Z,43.28
2022-12-25T11:03:00.877Z,44.95
2022-12-25T11:05:31.201Z,46.35
2022-12-25T11:08:02.913Z,48.45
2022-12-25T11:10:38.889Z,51.38
2022-12-25T11:13:16.419Z,49.67
2022-12-25T11:15:48.628Z,46.70
2022-12-25T11:18:49.389Z,48.28
2022-12-25T11:21:37.863Z,47.90
2022-12-25T11:24:19.834Z,52.35
2022-12-25T11:26:55.651Z,52.95
2022-12-25T11:32:46.946Z,51.58
2022-12-25T11:35:18.507Z,52.10
2022-12-25T11:37:50.996Z,50.10
2022-12-25T11:40:53.967Z,52.60
2022-12-25T11:43:39.736Z,51.25
2022-12-25T11:46:28.737Z,50.97
2022-12-25T11:49:13.345Z,50.58
2022-12-25T11:51:46.189Z,55.08
2022-12-25T11:54:30.235Z,52.05
2022-12-25T11:57:02.696Z,54.92
2022-12-25T11:59:41.540Z,51.60
2022-12-25T12:02:34.969Z,51.38
2022-12-25T12:05:26.246Z,53.50
2022-12-25T12:08:01.090Z,50.78
2022-12-25T12:11:16.261Z,51.10
2022-12-25T12:14:30.289Z,51.33
2022-12-25T12:16:57.672Z,51.85
2022-12-25T12:19:31.510Z,55.22
2022-12-25T12:22:04.055Z,54.88
2022-12-25T12:24:43.814Z,55.90
2022-12-25T12:27:10.931Z,52.95
2022-12-25T12:29:49.636Z,53.78
2022-12-25T12:32:48.805Z,52.42
2022-12-25T12:35:39.929Z,54.17
2022-12-25T12:38:17.867Z,54.63
2022-12-25T12:41:07.010Z,54.50
2022-12-25T12:43:58.791Z,53.83
2022-12-25T12:46:35.172Z,54.22
2022-12-25T12:49:32.790Z,56.55
2022-12-25T12:52:32.099Z,57.55
2022-12-25T12:55:14.953Z,57.28
2022-12-25T12:57:42.875Z,55.78
2022-12-25T13:00:21.181Z,57.47
2022-12-25T13:03:13.129Z,55.17
2022-12-25T13:05:50.825Z,53.25
2022-12-25T13:09:04.696Z,56.85
2022-12-25T13:11:41.927Z,54.10
2022-12-25T13:14:23.388Z,54.97
2022-12-25T13:16:54.238Z,59.95
2022-12-25T13:19:26.818Z,58.80
2022-12-25T13:21:58.437Z,57.45
2022-12-25T13:24:36.258Z,56.42
2022-12-25T13:27:44.661Z,54.72
2022-12-25T13:30:20.291Z,51.80
2022-12-25T13:32:49.178Z,51.30
2022-12-25T13:35:17.825Z,53.90
2022-12-25T13:37:45.672Z,52.47
2022-12-25T13:40:27.481Z,52.92
2022-12-25T13:43:00.970Z,50.50
2022-12-25T13:45:31.535Z,50.53
2022-12-25T13:48:14.988Z,53.38
2022-12-25T13:50:48.382Z,52.00
2022-12-25T13:53:20.426Z,50.65
2022-12-25T13:55:52.951Z,50.22
2022-12-25T13:58:39.535Z,50.60
2022-12-25T14:01:07.348Z,50.15
2022-12-25T14:03:46.283Z,48.78
2022-12-25T14:06:30.730Z,50.10
2022-12-25T14:08:59.652Z,50.33
2022-12-25T14:11:29.982Z,48.30
2022-12-25T14:14:04.227Z,50.53
2022-12-25T14:16:32.051Z,48.22
2022-12-25T14:19:02.885Z,50.15
2022-12-25T14:21:49.356Z,50.20
2022-12-25T14:24:25.344Z,49.35
2022-12-25T14:27:17.637Z,50.45
2022-12-25T14:29:48.031Z,48.05
2022-12-25T14:32:26.684Z,47.65
2022-12-25T14:35:03.383Z,50.60
2022-12-25T14:37:34.166Z,48.90
2022-12-25T14:40:28.546Z,48.03
2022-12-25T14:43:06.207Z,46.10
2022-12-25T14:45:40.580Z,47.00
2022-12-25T14:48:30.322Z,47.08
2022-12-25T14:51:06.189Z,48.72
2022-12-25T14:53:58.510Z,47.17
2022-12-25T14:56:29.273Z,50.00
2022-12-25T14:58:59.829Z,48.10
2022-12-25T15:01:35.895Z,50.85
2022-12-25T15:04:16.176Z,51.13
2022-12-25T15:07:07.203Z,50.35
2022-12-25T15:09:35.963Z,51.33
2022-12-25T15:12:03.501Z,52.05
2022-12-25T15:14:31.471Z,51.92
2022-12-25T15:17:01.638Z,50.05
2022-12-25T15:19:38.106Z,53.95
2022-12-25T15:22:09.186Z,54.47
2022-12-25T15:24:36.685Z,55.75
2022-12-25T15:27:05.421Z,55.85
2022-12-25T15:30:07.831Z,53.60
2022-12-25T15:32:23.662Z,55.35
2022-12-25T15:34:51.187Z,55.92
2022-12-25T15:37:19.228Z,55.80
2022-12-25T15:39:50.016Z,58.30
2022-12-25T15:42:23.492Z,59.03
2022-12-25T15:44:51.862Z,65.35
2022-12-25T15:47:23.076Z,61.90
2022-12-25T15:49:50.319Z,63.80
2022-12-25T15:52:18.289Z,63.08
2022-12-25T15:54:45.658Z,59.83
2022-12-25T15:57:22.061Z,63.00
2022-12-25T15:59:49.701Z,63.92
2022-12-25T16:02:21.062Z,63.92
2022-12-25T16:04:53.987Z,60.88
2022-12-25T16:07:25.121Z,61.05
2022-12-25T16:09:52.840Z,62.97
2022-12-25T16:12:21.238Z,58.72
2022-12-25T16:14:49.471Z,59.47
2022-12-25T16:17:17.082Z,59.35
2022-12-25T16:19:45.372Z,62.97
2022-12-25T16:22:31.882Z,62.95
2022-12-25T16:25:01.086Z,62.92
2022-12-25T16:27:28.451Z,63.03
2022-12-25T16:29:56.497Z,66.18
2022-12-25T16:32:23.736Z,63.13
2022-12-25T16:34:51.232Z,63.30
2022-12-25T16:37:18.914Z,61.65
2022-12-25T16:39:46.485Z,66.20
2022-12-25T16:42:14.005Z,60.67
2022-12-25T16:44:41.758Z,60.10
2022-12-25T16:47:09.140Z,62.60
2022-12-25T16:49:36.520Z,59.47
2022-12-25T16:52:04.160Z,61.22
2022-12-25T16:54:31.631Z,61.60
2022-12-25T16:57:00.235Z,61.55
2022-12-25T16:59:30.130Z,61.15
2022-12-25T17:01:57.810Z,62.53
2022-12-25T17:04:25.433Z,59.58
2022-12-25T17:06:53.080Z,63.20
2022-12-25T17:09:20.802Z,57.92
2022-12-25T17:11:48.306Z,62.05
2022-12-25T17:14:15.625Z,62.58
2022-12-25T17:16:42.861Z,62.65
2022-12-25T17:19:22.657Z,63.95
2022-12-25T17:21:52.194Z,65.55
2022-12-25T17:24:19.602Z,63.70
2022-12-25T17:26:47.745Z,59.55
2022-12-25T17:29:21.409Z,61.40
2022-12-25T17:31:50.025Z,64.35
2022-12-25T17:34:17.429Z,65.72
2022-12-25T17:36:44.935Z,59.95
2022-12-25T17:39:12.535Z,61.45
2022-12-25T17:41:40.008Z,66.38
2022-12-25T17:44:07.302Z,65.78
2022-12-25T17:46:34.614Z,65.55
2022-12-25T17:49:03.159Z,63.08
2022-12-25T17:51:31.626Z,62.42
2022-12-25T17:54:03.351Z,61.25
2022-12-25T17:56:32.529Z,62.28
2022-12-25T17:59:06.680Z,63.03
2022-12-25T18:01:37.652Z,62.47
2022-12-25T18:04:06.511Z,65.15
2022-12-25T18:06:36.958Z,65.78
2022-12-25T18:09:06.148Z,67.32
2022-12-25T18:11:36.942Z,63.50
2022-12-25T18:14:06.816Z,64.22
2022-12-25T18:16:40.118Z,63.63
2022-12-25T18:19:08.274Z,65.50
2022-12-25T18:21:35.914Z,63.60
2022-12-25T18:24:06.465Z,64.72
2022-12-25T18:26:34.492Z,63.67
2022-12-25T18:29:01.968Z,65.43
2022-12-25T18:31:32.991Z,61.65
2022-12-25T18:34:05.638Z,63.40
2022-12-25T18:36:37.006Z,63.90
2022-12-25T18:39:04.586Z,64.25
2022-12-25T18:41:51.979Z,63.17
2022-12-25T18:44:19.208Z,65.68
2022-12-25T18:46:46.563Z,65.70
2022-12-25T18:49:14.945Z,61.47
2022-12-25T18:51:42.207Z,63.50
2022-12-25T18:54:09.427Z,66.43
2022-12-25T18:56:36.776Z,68.60
2022-12-25T18:59:04.229Z,65.45
2022-12-25T19:01:31.789Z,68.18
2022-12-25T19:04:04.458Z,64.20
2022-12-25T19:06:33.368Z,66.95
2022-12-25T19:09:09.062Z,62.70
2022-12-25T19:14:14.666Z,65.18
2022-12-25T19:16:41.992Z,65.43
2022-12-25T19:19:09.448Z,65.18
2022-12-25T19:21:37.741Z,67.50
2022-12-25T19:24:06.039Z,64.45
2022-12-25T19:26:34.065Z,64.50
2022-12-25T19:29:03.291Z,65.97
2022-12-25T19:31:30.931Z,66.32
2022-12-25T19:33:58.217Z,65.70
2022-12-25T19:36:25.493Z,65.20
2022-12-25T19:38:52.833Z,67.03
2022-12-25T19:41:20.230Z,68.82
2022-12-25T19:43:49.374Z,63.35
2022-12-25T19:46:37.916Z,64.43
2022-12-25T19:49:06.181Z,69.43
2022-12-25T19:51:40.570Z,65.78
2022-12-25T19:54:12.632Z,67.70
2022-12-25T19:56:41.024Z,68.37
2022-12-25T19:59:08.683Z,67.13
2022-12-25T20:01:36.124Z,65.28
2022-12-25T20:04:03.619Z,66.93
2022-12-25T20:06:33.619Z,69.57
2022-12-25T20:09:21.086Z,65.68
2022-12-25T20:11:49.155Z,75.60
2022-12-25T20:14:17.558Z,75.20
2022-12-25T20:16:45.751Z,70.78
2022-12-25T20:19:15.932Z,70.47
2022-12-25T20:21:43.274Z,70.20
2022-12-25T20:24:11.182Z,70.53
2022-12-25T20:26:43.556Z,70.25
2022-12-25T20:29:14.148Z,69.78
2022-12-25T20:31:41.485Z,65.72
2022-12-25T20:34:11.873Z,66.03
2022-12-25T20:36:42.384Z,66.22
2022-12-25T20:39:12.757Z,63.28
2022-12-25T20:41:44.408Z,61.42
2022-12-25T20:44:13.226Z,66.60
2022-12-25T20:46:40.896Z,61.15
2022-12-25T20:49:10.241Z,61.25
2022-12-25T20:51:40.157Z,61.40
2022-12-25T20:54:11.068Z,62.03
2022-12-25T20:56:38.681Z,60.90
2022-12-25T20:59:06.265Z,63.20
2022-12-25T21:01:33.854Z,64.90
2022-12-25T21:04:01.600Z,64.15
2022-12-25T21:06:29.235Z,65.93
2022-12-25T21:08:56.910Z,63.95
2022-12-25T21:11:30.419Z,62.75
2022-12-25T21:14:00.351Z,63.38
2022-12-25T21:16:28.110Z,60.58
2022-12-25T21:18:55.474Z,63.58
2022-12-25T21:21:23.302Z,61.17
2022-12-25T21:23:51.046Z,63.97
2022-12-25T21:26:24.231Z,62.63
2022-12-25T21:28:57.239Z,64.25
2022-12-25T21:31:25.563Z,63.63
2022-12-25T21:33:55.340Z,60.17
2022-12-25T21:36:34.445Z,59.42
2022-12-25T21:39:08.389Z,65.60
2022-12-25T21:41:43.226Z,64.68
2022-12-25T21:44:19.339Z,64.27
2022-12-25T21:46:46.748Z,62.63
2022-12-25T21:49:35.342Z,65.47
2022-12-25T21:52:09.865Z,64.55
2022-12-25T21:54:38.999Z,61.55
2022-12-25T21:57:19.735Z,58.45
2022-12-25T21:59:48.447Z,59.90
2022-12-25T22:02:19.172Z,59.72
2022-12-25T22:04:49.489Z,55.58
2022-12-25T22:07:19.568Z,59.90
2022-12-25T22:09:51.510Z,62.08
2022-12-25T22:12:39.853Z,63.15
2022-12-25T22:15:10.420Z,57.85
2022-12-25T22:18:00.537Z,63.05
2022-12-25T22:20:38.179Z,59.58
2022-12-25T22:23:05.914Z,60.15
2022-12-25T22:25:33.218Z,60.90
2022-12-25T22:28:00.694Z,56.38
2022-12-25T22:30:31.084Z,54.75
2022-12-25T22:33:02.756Z,58.25
2022-12-25T22:35:33.860Z,56.97
2022-12-25T22:38:03.979Z,55.53
2022-12-25T22:40:36.550Z,61.58
2022-12-25T22:43:03.832Z,61.40
2022-12-25T22:45:31.209Z,62.30
2022-12-25T22:47:58.635Z,64.97
2022-12-25T22:50:33.353Z,64.97
2022-12-25T22:53:02.779Z,63.30
2022-12-25T22:55:32.288Z,59.85
2022-12-25T22:58:02.922Z,66.30
2022-12-25T23:00:33.045Z,65.40
2022-12-25T23:03:00.467Z,59.78
2022-12-25T23:05:28.031Z,53.03
2022-12-25T23:07:59.481Z,58.92
2022-12-25T23:10:49.496Z,58.55
2022-12-25T23:13:38.991Z,62.83
2022-12-25T23:16:13.295Z,58.45
2022-12-25T23:18:59.425Z,63.63
2022-12-25T23:22:07.789Z,63.72
2022-12-25T23:24:53.808Z,64.13
2022-12-25T23:27:28.701Z,63.30
2022-12-25T23:29:59.354Z,61.17
2022-12-25T23:32:29.933Z,61.95
2022-12-25T23:34:57.182Z,61.53
2022-12-25T23:37:28.142Z,62.33
2022-12-25T23:39:59.661Z,62.63
2022-12-25T23:42:30.012Z,64.88
2022-12-25T23:45:03.210Z,63.83
2022-12-25T23:47:30.978Z,65.28
2022-12-25T23:50:00.116Z,65.93
2022-12-25T23:52:27.526Z,63.00
2022-12-25T23:54:54.993Z,65.30
2022-12-25T23:57:25.333Z,65.78
2022-12-25T23:59:52.615Z,60.97
